sensor_id;sensor_type;location;lat;lon;timestamp;pressure;altitude;pressure_sealevel;temperature;humidity
15487;BME280;7845;53.698;10.078;2022-11-20T00:01:39;100790.59;;;3.65;100.00
15487;BME280;7845;53.698;10.078;2022-11-20T00:04:05;100792.34;;;3.66;100.00
15487;BME280;7845;53.698;10.078;2022-11-20T00:06:30;100790.59;;;3.65;100.00
15487;BME280;7845;53.698;10.078;2022-11-20T00:08:58;100793.19;;;3.65;100.00
15487;BME280;7845;53.698;10.078;2022-11-20T00:11:25;100799.22;;;3.65;100.00
15487;BME280;7845;53.698;10.078;2022-11-20T00:13:53;100795.00;;;3.70;100.00
15487;BME280;7845;53.698;10.078;2022-11-20T00:16:21;100797.72;;;3.75;100.00
15487;BME280;7845;53.698;10.078;2022-11-20T00:18:49;100794.25;;;3.74;100.00
15487;BME280;7845;53.698;10.078;2022-11-20T00:21:28;100797.66;;;3.73;100.00
15487;BME280;7845;53.698;10.078;2022-11-20T00:23:55;100787.25;;;3.69;100.00
15487;BME280;7845;53.698;10.078;2022-11-20T00:26:23;100784.69;;;3.70;100.00
15487;BME280;7845;53.698;10.078;2022-11-20T00:28:51;100790.72;;;3.69;100.00
15487;BME280;7845;53.698;10.078;2022-11-20T00:31:17;100787.31;;;3.72;100.00
15487;BME280;7845;53.698;10.078;2022-11-20T00:33:43;100788.16;;;3.71;100.00
15487;BME280;7845;53.698;10.078;2022-11-20T00:36:31;100785.56;;;3.71;100.00
15487;BME280;7845;53.698;10.078;2022-11-20T00:38:58;100786.44;;;3.71;100.00
15487;BME280;7845;53.698;10.078;2022-11-20T00:41:24;100788.13;;;3.69;100.00
15487;BME280;7845;53.698;10.078;2022-11-20T00:43:51;100793.25;;;3.68;100.00
15487;BME280;7845;53.698;10.078;2022-11-20T00:46:19;100790.66;;;3.68;100.00
15487;BME280;7845;53.698;10.078;2022-11-20T00:48:46;100786.44;;;3.70;100.00
15487;BME280;7845;53.698;10.078;2022-11-20T00:51:14;100784.63;;;3.66;100.00
15487;BME280;7845;53.698;10.078;2022-11-20T00:53:41;100777.75;;;3.68;100.00
15487;BME280;7845;53.698;10.078;2022-11-20T00:56:09;100783.78;;;3.67;100.00
15487;BME280;7845;53.698;10.078;2022-11-20T00:58:36;100776.81;;;3.63;100.00
15487;BME280;7845;53.698;10.078;2022-11-20T01:01:07;100777.75;;;3.68;100.00
15487;BME280;7845;53.698;10.078;2022-11-20T01:03:35;100785.50;;;3.66;100.00
15487;BME280;7845;53.698;10.078;2022-11-20T01:06:03;100780.41;;;3.71;100.00
15487;BME280;7845;53.698;10.078;2022-11-20T01:08:30;100777.81;;;3.69;100.00
15487;BME280;7845;53.698;10.078;2022-11-20T01:11:06;100777.75;;;3.66;100.00
15487;BME280;7845;53.698;10.078;2022-11-20T01:13:32;100771.84;;;3.72;100.00
15487;BME280;7845;53.698;10.078;2022-11-20T01:16:13;100772.59;;;3.66;100.00
15487;BME280;7845;53.698;10.078;2022-11-20T01:18:41;100767.38;;;3.65;100.00
15487;BME280;7845;53.698;10.078;2022-11-20T01:21:09;100768.25;;;3.65;100.00
15487;BME280;7845;53.698;10.078;2022-11-20T01:23:37;100773.41;;;3.65;100.00
15487;BME280;7845;53.698;10.078;2022-11-20T01:26:06;100768.25;;;3.65;100.00
15487;BME280;7845;53.698;10.078;2022-11-20T01:28:31;100758.78;;;3.64;100.00
15487;BME280;7845;53.698;10.078;2022-11-20T01:30:57;100757.81;;;3.58;100.00
15487;BME280;7845;53.698;10.078;2022-11-20T01:33:23;100753.56;;;3.61;100.00
15487;BME280;7845;53.698;10.078;2022-11-20T01:35:48;100751.06;;;3.66;100.00
15487;BME280;7845;53.698;10.078;2022-11-20T01:38:18;100750.25;;;3.68;100.00
15487;BME280;7845;53.698;10.078;2022-11-20T01:40:45;100741.69;;;3.69;100.00
15487;BME280;7845;53.698;10.078;2022-11-20T01:43:17;100747.66;;;3.67;100.00
15487;BME280;7845;53.698;10.078;2022-11-20T01:45:59;100737.22;;;3.62;100.00
15487;BME280;7845;53.698;10.078;2022-11-20T01:48:28;100741.38;;;3.54;100.00
15487;BME280;7845;53.698;10.078;2022-11-20T01:50:55;100730.13;;;3.51;100.00
15487;BME280;7845;53.698;10.078;2022-11-20T01:53:25;100737.00;;;3.50;100.00
15487;BME280;7845;53.698;10.078;2022-11-20T01:55:55;100731.75;;;3.47;100.00
15487;BME280;7845;53.698;10.078;2022-11-20T01:58:27;100727.53;;;3.49;100.00
15487;BME280;7845;53.698;10.078;2022-11-20T02:00:55;100728.38;;;3.50;100.00
15487;BME280;7845;53.698;10.078;2022-11-20T02:03:21;100725.09;;;3.57;100.00
15487;BME280;7845;53.698;10.078;2022-11-20T02:06:05;100722.59;;;3.61;100.00
15487;BME280;7845;53.698;10.078;2022-11-20T02:08:33;100719.97;;;3.60;100.00
15487;BME280;7845;53.698;10.078;2022-11-20T02:10:59;100722.50;;;3.57;100.00
15487;BME280;7845;53.698;10.078;2022-11-20T02:13:24;100717.34;;;3.57;100.00
15487;BME280;7845;53.698;10.078;2022-11-20T02:18:45;100715.72;;;3.62;100.00
15487;BME280;7845;53.698;10.078;2022-11-20T02:21:28;100716.63;;;3.64;100.00
15487;BME280;7845;53.698;10.078;2022-11-20T02:24:04;100717.47;;;3.63;100.00
15487;BME280;7845;53.698;10.078;2022-11-20T02:26:33;100715.75;;;3.63;100.00
15487;BME280;7845;53.698;10.078;2022-11-20T02:29:02;100712.41;;;3.67;100.00
15487;BME280;7845;53.698;10.078;2022-11-20T02:31:27;100710.59;;;3.65;100.00
15487;BME280;7845;53.698;10.078;2022-11-20T02:33:58;100710.56;;;3.62;100.00
15487;BME280;7845;53.698;10.078;2022-11-20T02:36:26;100708.03;;;3.65;100.00
15487;BME280;7845;53.698;10.078;2022-11-20T02:38:53;100699.38;;;3.61;100.00
15487;BME280;7845;53.698;10.078;2022-11-20T02:41:19;100688.97;;;3.57;100.00
15487;BME280;7845;53.698;10.078;2022-11-20T02:43:44;100684.63;;;3.54;100.00
15487;BME280;7845;53.698;10.078;2022-11-20T02:46:09;100682.81;;;3.50;100.00
15487;BME280;7845;53.698;10.078;2022-11-20T02:48:35;100688.81;;;3.49;100.00
15487;BME280;7845;53.698;10.078;2022-11-20T02:51:00;100690.53;;;3.49;100.00
15487;BME280;7845;53.698;10.078;2022-11-20T02:53:26;100687.91;;;3.47;100.00
15487;BME280;7845;53.698;10.078;2022-11-20T02:55:51;100684.44;;;3.45;100.00
15487;BME280;7845;53.698;10.078;2022-11-20T02:58:17;100687.06;;;3.48;100.00
15487;BME280;7845;53.698;10.078;2022-11-20T03:00:43;100685.44;;;3.52;100.00
15487;BME280;7845;53.698;10.078;2022-11-20T03:03:08;100683.69;;;3.51;100.00
15487;BME280;7845;53.698;10.078;2022-11-20T03:05:33;100680.28;;;3.52;100.00
15487;BME280;7845;53.698;10.078;2022-11-20T03:07:59;100688.03;;;3.53;100.00
15487;BME280;7845;53.698;10.078;2022-11-20T03:10:24;100690.59;;;3.52;100.00
15487;BME280;7845;53.698;10.078;2022-11-20T03:12:54;100681.16;;;3.54;100.00
15487;BME280;7845;53.698;10.078;2022-11-20T03:15:24;100687.09;;;3.50;100.00
15487;BME280;7845;53.698;10.078;2022-11-20T03:17:54;100683.66;;;3.49;100.00
15487;BME280;7845;53.698;10.078;2022-11-20T03:20:21;100684.44;;;3.47;100.00
15487;BME280;7845;53.698;10.078;2022-11-20T03:22:46;100683.56;;;3.45;100.00
15487;BME280;7845;53.698;10.078;2022-11-20T03:25:11;100674.94;;;3.43;100.00
15487;BME280;7845;53.698;10.078;2022-11-20T03:27:37;100680.09;;;3.43;100.00
15487;BME280;7845;53.698;10.078;2022-11-20T03:30:03;100679.22;;;3.42;100.00
15487;BME280;7845;53.698;10.078;2022-11-20T03:32:30;100676.66;;;3.44;100.00
15487;BME280;7845;53.698;10.078;2022-11-20T03:34:56;100669.84;;;3.47;100.00
15487;BME280;7845;53.698;10.078;2022-11-20T03:37:21;100674.13;;;3.47;100.00
15487;BME280;7845;53.698;10.078;2022-11-20T03:39:47;100671.59;;;3.48;100.00
15487;BME280;7845;53.698;10.078;2022-11-20T03:42:12;100663.81;;;3.45;100.00
15487;BME280;7845;53.698;10.078;2022-11-20T03:44:56;100665.56;;;3.48;100.00
15487;BME280;7845;53.698;10.078;2022-11-20T03:47:21;100664.75;;;3.50;100.00
15487;BME280;7845;53.698;10.078;2022-11-20T03:49:47;100666.50;;;3.51;100.00
15487;BME280;7845;53.698;10.078;2022-11-20T03:52:12;100656.19;;;3.53;100.00
15487;BME280;7845;53.698;10.078;2022-11-20T03:54:37;100659.69;;;3.55;100.00
15487;BME280;7845;53.698;10.078;2022-11-20T03:57:03;100662.31;;;3.58;100.00
15487;BME280;7845;53.698;10.078;2022-11-20T03:59:28;100656.28;;;3.57;100.00
15487;BME280;7845;53.698;10.078;2022-11-20T04:01:53;100660.56;;;3.55;100.00
15487;BME280;7845;53.698;10.078;2022-11-20T04:04:18;100654.53;;;3.56;100.00
15487;BME280;7845;53.698;10.078;2022-11-20T04:06:44;100651.03;;;3.53;100.00
15487;BME280;7845;53.698;10.078;2022-11-20T04:09:11;100658.00;;;3.55;100.00
15487;BME280;7845;53.698;10.078;2022-11-20T04:11:39;100659.69;;;3.55;100.00
15487;BME280;7845;53.698;10.078;2022-11-20T04:14:06;100661.41;;;3.56;100.00
15487;BME280;7845;53.698;10.078;2022-11-20T04:16:37;100656.25;;;3.56;100.00
15487;BME280;7845;53.698;10.078;2022-11-20T04:19:04;100651.97;;;3.56;100.00
15487;BME280;7845;53.698;10.078;2022-11-20T04:21:30;100664.88;;;3.56;100.00
15487;BME280;7845;53.698;10.078;2022-11-20T04:23:56;100657.06;;;3.52;100.00
15487;BME280;7845;53.698;10.078;2022-11-20T04:26:26;100646.69;;;3.49;100.00
15487;BME280;7845;53.698;10.078;2022-11-20T04:28:52;100651.78;;;3.46;100.00
15487;BME280;7845;53.698;10.078;2022-11-20T04:31:23;100643.97;;;3.43;100.00
15487;BME280;7845;53.698;10.078;2022-11-20T04:33:50;100645.63;;;3.41;100.00
15487;BME280;7845;53.698;10.078;2022-11-20T04:36:22;100642.94;;;3.34;100.00
15487;BME280;7845;53.698;10.078;2022-11-20T04:38:52;100637.84;;;3.38;100.00
15487;BME280;7845;53.698;10.078;2022-11-20T04:41:19;100631.91;;;3.40;100.00
15487;BME280;7845;53.698;10.078;2022-11-20T04:43:50;100630.16;;;3.41;100.00
15487;BME280;7845;53.698;10.078;2022-11-20T04:46:19;100632.72;;;3.39;100.00
15487;BME280;7845;53.698;10.078;2022-11-20T04:48:45;100628.44;;;3.40;100.00
15487;BME280;7845;53.698;10.078;2022-11-20T04:51:11;100633.66;;;3.43;100.00
15487;BME280;7845;53.698;10.078;2022-11-20T04:53:39;100631.09;;;3.44;100.00
15487;BME280;7845;53.698;10.078;2022-11-20T04:56:07;100629.28;;;3.39;100.00
15487;BME280;7845;53.698;10.078;2022-11-20T04:58:33;100630.09;;;3.38;100.00
15487;BME280;7845;53.698;10.078;2022-11-20T05:01:03;100624.94;;;3.38;100.00
15487;BME280;7845;53.698;10.078;2022-11-20T05:03:29;100623.25;;;3.38;100.00
15487;BME280;7845;53.698;10.078;2022-11-20T05:05:54;100612.06;;;3.38;100.00
15487;BME280;7845;53.698;10.078;2022-11-20T05:08:20;100614.50;;;3.30;100.00
15487;BME280;7845;53.698;10.078;2022-11-20T05:10:45;100618.84;;;3.31;100.00
15487;BME280;7845;53.698;10.078;2022-11-20T05:13:10;100619.72;;;3.31;100.00
15487;BME280;7845;53.698;10.078;2022-11-20T05:15:35;100610.16;;;3.29;100.00
15487;BME280;7845;53.698;10.078;2022-11-20T05:18:01;100611.03;;;3.29;100.00
15487;BME280;7845;53.698;10.078;2022-11-20T05:20:26;100614.44;;;3.27;100.00
15487;BME280;7845;53.698;10.078;2022-11-20T05:22:51;100601.50;;;3.24;100.00
15487;BME280;7845;53.698;10.078;2022-11-20T05:25:17;100594.47;;;3.17;100.00
15487;BME280;7845;53.698;10.078;2022-11-20T05:27:42;100585.97;;;3.21;100.00
15487;BME280;7845;53.698;10.078;2022-11-20T05:30:08;100589.41;;;3.21;100.00
15487;BME280;7845;53.698;10.078;2022-11-20T05:32:34;100590.31;;;3.23;100.00
15487;BME280;7845;53.698;10.078;2022-11-20T05:34:59;100580.88;;;3.24;100.00
15487;BME280;7845;53.698;10.078;2022-11-20T05:37:24;100567.97;;;3.24;100.00
15487;BME280;7845;53.698;10.078;2022-11-20T05:39:50;100579.22;;;3.27;100.00
15487;BME280;7845;53.698;10.078;2022-11-20T05:42:15;100579.06;;;3.20;100.00
15487;BME280;7845;53.698;10.078;2022-11-20T05:45:00;100576.53;;;3.21;100.00
15487;BME280;7845;53.698;10.078;2022-11-20T05:47:27;100566.25;;;3.24;100.00
15487;BME280;7845;53.698;10.078;2022-11-20T05:49:52;100579.97;;;3.22;100.00
15487;BME280;7845;53.698;10.078;2022-11-20T05:52:18;100582.50;;;3.19;100.00
15487;BME280;7845;53.698;10.078;2022-11-20T05:54:43;100583.22;;;3.12;100.00
15487;BME280;7845;53.698;10.078;2022-11-20T05:57:10;100584.91;;;3.10;100.00
15487;BME280;7845;53.698;10.078;2022-11-20T05:59:35;100589.88;;;3.02;100.00
15487;BME280;7845;53.698;10.078;2022-11-20T06:02:01;100594.22;;;3.03;100.00
15487;BME280;7845;53.698;10.078;2022-11-20T06:04:27;100584.72;;;3.01;100.00
15487;BME280;7845;53.698;10.078;2022-11-20T06:06:53;100586.38;;;2.99;100.00
15487;BME280;7845;53.698;10.078;2022-11-20T06:09:19;100587.94;;;2.91;100.00
15487;BME280;7845;53.698;10.078;2022-11-20T06:11:44;100587.88;;;2.86;100.00
15487;BME280;7845;53.698;10.078;2022-11-20T06:14:09;100584.34;;;2.83;100.00
15487;BME280;7845;53.698;10.078;2022-11-20T06:16:35;100580.84;;;2.79;100.00
15487;BME280;7845;53.698;10.078;2022-11-20T06:19:00;100580.91;;;2.82;100.00
15487;BME280;7845;53.698;10.078;2022-11-20T06:21:25;100586.03;;;2.81;100.00
15487;BME280;7845;53.698;10.078;2022-11-20T06:23:52;100592.97;;;2.83;100.00
15487;BME280;7845;53.698;10.078;2022-11-20T06:26:23;100592.97;;;2.83;100.00
15487;BME280;7845;53.698;10.078;2022-11-20T06:28:50;100587.88;;;2.86;100.00
15487;BME280;7845;53.698;10.078;2022-11-20T06:31:18;100589.72;;;2.93;100.00
15487;BME280;7845;53.698;10.078;2022-11-20T06:33:44;100590.69;;;2.98;100.00
15487;BME280;7845;53.698;10.078;2022-11-20T06:36:12;100585.56;;;3.00;100.00
15487;BME280;7845;53.698;10.078;2022-11-20T06:38:39;100586.44;;;3.02;100.00
15487;BME280;7845;53.698;10.078;2022-11-20T06:41:07;100585.56;;;3.00;100.00
15487;BME280;7845;53.698;10.078;2022-11-20T06:43:33;100578.69;;;3.00;100.00
15487;BME280;7845;53.698;10.078;2022-11-20T06:45:59;100591.59;;;3.02;100.00
15487;BME280;7845;53.698;10.078;2022-11-20T06:48:26;100592.53;;;3.05;100.00
15487;BME280;7845;53.698;10.078;2022-11-20T06:50:51;100590.81;;;3.06;100.00
15487;BME280;7845;53.698;10.078;2022-11-20T06:53:17;100589.88;;;3.01;100.00
15487;BME280;7845;53.698;10.078;2022-11-20T06:55:44;100583.91;;;3.03;100.00
15487;BME280;7845;53.698;10.078;2022-11-20T06:58:11;100592.28;;;2.92;100.00
15487;BME280;7845;53.698;10.078;2022-11-20T07:00:37;100593.03;;;2.88;100.00
15487;BME280;7845;53.698;10.078;2022-11-20T07:03:03;100577.63;;;2.91;100.00
15487;BME280;7845;53.698;10.078;2022-11-20T07:05:30;100585.50;;;2.97;100.00
15487;BME280;7845;53.698;10.078;2022-11-20T07:07:56;100584.69;;;2.99;100.00
15487;BME280;7845;53.698;10.078;2022-11-20T07:10:25;100577.75;;;2.95;100.00
15487;BME280;7845;53.698;10.078;2022-11-20T07:12:51;100578.75;;;3.05;100.00
15487;BME280;7845;53.698;10.078;2022-11-20T07:15:18;100573.72;;;3.09;100.00
15487;BME280;7845;53.698;10.078;2022-11-20T07:17:43;100578.97;;;3.15;100.00
15487;BME280;7845;53.698;10.078;2022-11-20T07:20:09;100570.50;;;3.21;100.00
15487;BME280;7845;53.698;10.078;2022-11-20T07:22:35;100566.28;;;3.26;100.00
15487;BME280;7845;53.698;10.078;2022-11-20T07:25:01;100566.44;;;3.33;100.00
15487;BME280;7845;53.698;10.078;2022-11-20T07:27:27;100565.56;;;3.33;100.00
15487;BME280;7845;53.698;10.078;2022-11-20T07:29:53;100563.03;;;3.38;100.00
15487;BME280;7845;53.698;10.078;2022-11-20T07:32:18;100567.41;;;3.40;100.00
15487;BME280;7845;53.698;10.078;2022-11-20T07:34:45;100567.47;;;3.43;100.00
15487;BME280;7845;53.698;10.078;2022-11-20T07:37:10;100567.38;;;3.39;100.00
15487;BME280;7845;53.698;10.078;2022-11-20T07:39:37;100569.16;;;3.43;100.00
15487;BME280;7845;53.698;10.078;2022-11-20T07:42:06;100576.00;;;3.41;100.00
15487;BME280;7845;53.698;10.078;2022-11-20T07:44:31;100577.72;;;3.40;100.00
15487;BME280;7845;53.698;10.078;2022-11-20T07:46:58;100574.34;;;3.43;100.00
15487;BME280;7845;53.698;10.078;2022-11-20T07:49:23;100570.84;;;3.41;100.00
15487;BME280;7845;53.698;10.078;2022-11-20T07:51:51;100574.41;;;3.47;100.00
15487;BME280;7845;53.698;10.078;2022-11-20T07:54:19;100573.56;;;3.50;100.00
15487;BME280;7845;53.698;10.078;2022-11-20T07:56:44;100572.78;;;3.52;100.00
15487;BME280;7845;53.698;10.078;2022-11-20T07:59:09;100574.59;;;3.58;100.00
15487;BME280;7845;53.698;10.078;2022-11-20T08:01:37;100571.97;;;3.56;100.00
15487;BME280;7845;53.698;10.078;2022-11-20T08:04:02;100572.91;;;3.60;100.00
15487;BME280;7845;53.698;10.078;2022-11-20T08:06:28;100576.31;;;3.57;100.00
15487;BME280;7845;53.698;10.078;2022-11-20T08:08:54;100572.03;;;3.58;100.00
15487;BME280;7845;53.698;10.078;2022-11-20T08:11:19;100575.53;;;3.63;100.00
15487;BME280;7845;53.698;10.078;2022-11-20T08:14:05;100572.09;;;3.62;100.00
15487;BME280;7845;53.698;10.078;2022-11-20T08:16:40;100571.25;;;3.65;100.00
15487;BME280;7845;53.698;10.078;2022-11-20T08:19:06;100571.31;;;3.66;100.00
15487;BME280;7845;53.698;10.078;2022-11-20T08:21:32;100575.63;;;3.67;100.00
15487;BME280;7845;53.698;10.078;2022-11-20T08:23:58;100572.25;;;3.71;100.00
15487;BME280;7845;53.698;10.078;2022-11-20T08:26:25;100579.09;;;3.69;100.00
15487;BME280;7845;53.698;10.078;2022-11-20T08:28:57;100576.63;;;3.75;100.00
15487;BME280;7845;53.698;10.078;2022-11-20T08:31:24;100580.13;;;3.79;100.00
15487;BME280;7845;53.698;10.078;2022-11-20T08:33:52;100579.25;;;3.80;100.00
15487;BME280;7845;53.698;10.078;2022-11-20T08:36:19;100586.06;;;3.76;100.00
15487;BME280;7845;53.698;10.078;2022-11-20T08:38:49;100578.22;;;3.69;100.00
15487;BME280;7845;53.698;10.078;2022-11-20T08:41:14;100579.16;;;3.72;100.00
15487;BME280;7845;53.698;10.078;2022-11-20T08:43:50;100583.38;;;3.70;100.00
15487;BME280;7845;53.698;10.078;2022-11-20T08:46:16;100586.06;;;3.75;100.00
15487;BME280;7845;53.698;10.078;2022-11-20T08:48:42;100579.19;;;3.75;100.00
15487;BME280;7845;53.698;10.078;2022-11-20T08:51:07;100580.94;;;3.78;100.00
15487;BME280;7845;53.698;10.078;2022-11-20T08:53:33;100575.91;;;3.84;100.00
15487;BME280;7845;53.698;10.078;2022-11-20T08:55:58;100570.84;;;3.91;100.00
15487;BME280;7845;53.698;10.078;2022-11-20T08:58:24;100582.09;;;3.95;100.00
15487;BME280;7845;53.698;10.078;2022-11-20T09:00:50;100586.47;;;3.99;100.00
15487;BME280;7845;53.698;10.078;2022-11-20T09:03:15;100586.50;;;4.02;100.00
15487;BME280;7845;53.698;10.078;2022-11-20T09:05:41;100582.25;;;4.06;100.00
15487;BME280;7845;53.698;10.078;2022-11-20T09:08:06;100581.34;;;4.04;100.00
15487;BME280;7845;53.698;10.078;2022-11-20T09:10:32;100576.22;;;4.07;100.00
15487;BME280;7845;53.698;10.078;2022-11-20T09:12:57;100583.19;;;4.11;100.00
15487;BME280;7845;53.698;10.078;2022-11-20T09:15:23;100585.88;;;4.17;100.00
15487;BME280;7845;53.698;10.078;2022-11-20T09:17:59;100591.03;;;4.18;100.00
15487;BME280;7845;53.698;10.078;2022-11-20T09:20:25;100593.72;;;4.23;100.00
15487;BME280;7845;53.698;10.078;2022-11-20T09:22:51;100600.63;;;4.24;100.00
15487;BME280;7845;53.698;10.078;2022-11-20T09:25:16;100594.59;;;4.23;100.00
15487;BME280;7845;53.698;10.078;2022-11-20T09:27:43;100592.88;;;4.24;100.00
15487;BME280;7845;53.698;10.078;2022-11-20T09:30:12;100597.09;;;4.19;100.00
15487;BME280;7845;53.698;10.078;2022-11-20T09:32:41;100594.41;;;4.13;100.00
15487;BME280;7845;53.698;10.078;2022-11-20T09:35:07;100596.03;;;4.06;100.00
15487;BME280;7845;53.698;10.078;2022-11-20T09:37:33;100596.78;;;4.01;100.00
15487;BME280;7845;53.698;10.078;2022-11-20T09:39:58;100606.09;;;3.88;100.00
15487;BME280;7845;53.698;10.078;2022-11-20T09:42:45;100595.63;;;3.80;100.00
15487;BME280;7845;53.698;10.078;2022-11-20T09:45:24;100595.56;;;3.77;100.00
15487;BME280;7845;53.698;10.078;2022-11-20T09:50:53;100588.84;;;3.87;100.00
15487;BME280;7845;53.698;10.078;2022-11-20T09:55:54;100584.50;;;3.84;100.00
15487;BME280;7845;53.698;10.078;2022-11-20T09:58:42;100582.94;;;3.94;100.00
15487;BME280;7845;53.698;10.078;2022-11-20T10:01:21;100581.31;;;3.99;100.00
15487;BME280;7845;53.698;10.078;2022-11-20T10:04:06;100582.19;;;4.01;100.00
15487;BME280;7845;53.698;10.078;2022-11-20T10:07:02;100583.69;;;3.87;100.00
15487;BME280;7845;53.698;10.078;2022-11-20T10:09:34;100582.09;;;3.95;100.00
15487;BME280;7845;53.698;10.078;2022-11-20T10:15:24;100586.41;;;3.96;100.00
15487;BME280;7845;53.698;10.078;2022-11-20T10:20:46;100595.84;;;3.94;100.00
15487;BME280;7845;53.698;10.078;2022-11-20T10:23:22;100595.72;;;3.86;100.00
15487;BME280;7845;53.698;10.078;2022-11-20T10:26:01;100590.50;;;3.83;100.00
15487;BME280;7845;53.698;10.078;2022-11-20T10:31:27;100591.34;;;3.82;100.00
15487;BME280;7845;53.698;10.078;2022-11-20T10:33:57;100582.84;;;3.88;100.00
15487;BME280;7845;53.698;10.078;2022-11-20T10:36:30;100582.34;;;4.12;100.00
15487;BME280;7845;53.698;10.078;2022-11-20T10:39:03;100576.59;;;4.29;100.00
15487;BME280;7845;53.698;10.078;2022-11-20T10:41:37;100579.41;;;4.44;100.00
15487;BME280;7845;53.698;10.078;2022-11-20T10:44:11;100581.13;;;4.47;100.00
15487;BME280;7845;53.698;10.078;2022-11-20T10:46:44;100576.81;;;4.44;100.00
15487;BME280;7845;53.698;10.078;2022-11-20T10:49:13;100572.53;;;4.48;100.00
15487;BME280;7845;53.698;10.078;2022-11-20T10:51:53;100573.94;;;4.25;100.00
15487;BME280;7845;53.698;10.078;2022-11-20T10:54:33;100572.97;;;4.18;100.00
15487;BME280;7845;53.698;10.078;2022-11-20T10:57:11;100573.66;;;4.05;100.00
15487;BME280;7845;53.698;10.078;2022-11-20T11:00:13;100572.34;;;4.33;100.00
15487;BME280;7845;53.698;10.078;2022-11-20T11:02:46;100573.28;;;4.39;100.00
15487;BME280;7845;53.698;10.078;2022-11-20T11:05:20;100580.66;;;4.14;100.00
15487;BME280;7845;53.698;10.078;2022-11-20T11:07:50;100577.28;;;4.19;100.00
15487;BME280;7845;53.698;10.078;2022-11-20T11:10:21;100572.22;;;4.25;100.00
15487;BME280;7845;53.698;10.078;2022-11-20T11:12:48;100573.09;;;4.27;100.00
15487;BME280;7845;53.698;10.078;2022-11-20T11:15:38;100567.78;;;4.17;100.00
15487;BME280;7845;53.698;10.078;2022-11-20T11:18:22;100564.47;;;4.25;100.00
15487;BME280;7845;53.698;10.078;2022-11-20T11:20:52;100561.97;;;4.30;100.00
15487;BME280;7845;53.698;10.078;2022-11-20T11:26:04;100559.56;;;4.45;100.00
15487;BME280;7845;53.698;10.078;2022-11-20T11:28:30;100551.81;;;4.43;100.00
15487;BME280;7845;53.698;10.078;2022-11-20T11:30:55;100555.44;;;4.56;100.00
15487;BME280;7845;53.698;10.078;2022-11-20T11:33:26;100542.50;;;4.56;100.00
15487;BME280;7845;53.698;10.078;2022-11-20T11:35:57;100534.00;;;4.66;100.00
15487;BME280;7845;53.698;10.078;2022-11-20T11:38:36;100540.22;;;4.82;100.00
15487;BME280;7845;53.698;10.078;2022-11-20T11:41:04;100542.81;;;4.82;100.00
15487;BME280;7845;53.698;10.078;2022-11-20T11:43:33;100541.13;;;4.85;100.00
15487;BME280;7845;53.698;10.078;2022-11-20T11:48:58;100536.88;;;4.89;100.00
15487;BME280;7845;53.698;10.078;2022-11-20T11:51:36;100527.44;;;4.92;100.00
15487;BME280;7845;53.698;10.078;2022-11-20T11:54:13;100523.13;;;4.96;100.00
15487;BME280;7845;53.698;10.078;2022-11-20T11:56:41;100531.59;;;4.80;100.00
15487;BME280;7845;53.698;10.078;2022-11-20T11:59:11;100530.75;;;4.82;100.00
15487;BME280;7845;53.698;10.078;2022-11-20T12:01:52;100538.66;;;4.94;100.00
15487;BME280;7845;53.698;10.078;2022-11-20T12:04:40;100528.38;;;5.00;100.00
15487;BME280;7845;53.698;10.078;2022-11-20T12:07:25;100539.47;;;4.92;100.00
15487;BME280;7845;53.698;10.078;2022-11-20T12:09:57;100542.00;;;4.86;100.00
15487;BME280;7845;53.698;10.078;2022-11-20T12:12:28;100539.41;;;4.86;100.00
15487;BME280;7845;53.698;10.078;2022-11-20T12:14:57;100540.94;;;4.69;100.00
15487;BME280;7845;53.698;10.078;2022-11-20T12:17:23;100529.00;;;4.81;100.00
15487;BME280;7845;53.698;10.078;2022-11-20T12:19:49;100538.53;;;4.87;100.00
15487;BME280;7845;53.698;10.078;2022-11-20T12:22:45;100532.56;;;4.89;100.00
15487;BME280;7845;53.698;10.078;2022-11-20T12:25:21;100530.09;;;5.00;100.00
15487;BME280;7845;53.698;10.078;2022-11-20T12:30:41;100524.97;;;5.06;100.00
15487;BME280;7845;53.698;10.078;2022-11-20T12:36:27;100529.22;;;4.98;100.00
15487;BME280;7845;53.698;10.078;2022-11-20T12:39:07;100522.34;;;5.03;100.00
15487;BME280;7845;53.698;10.078;2022-11-20T12:50:48;100508.72;;;5.18;100.00
15487;BME280;7845;53.698;10.078;2022-11-20T12:58:52;100506.28;;;5.34;100.00
15487;BME280;7845;53.698;10.078;2022-11-20T13:01:51;100515.69;;;5.26;100.00
15487;BME280;7845;53.698;10.078;2022-11-20T13:07:05;100515.59;;;5.16;100.00
15487;BME280;7845;53.698;10.078;2022-11-20T13:09:35;100514.59;;;5.03;100.00
15487;BME280;7845;53.698;10.078;2022-11-20T13:12:15;100502.47;;;4.99;100.00
15487;BME280;7845;53.698;10.078;2022-11-20T13:15:00;100505.84;;;4.90;100.00
15487;BME280;7845;53.698;10.078;2022-11-20T13:17:38;100505.81;;;4.86;100.00
15487;BME280;7845;53.698;10.078;2022-11-20T13:20:13;100499.66;;;4.76;100.00
15487;BME280;7845;53.698;10.078;2022-11-20T13:22:45;100502.22;;;4.72;100.00
15487;BME280;7845;53.698;10.078;2022-11-20T13:27:55;100491.81;;;4.67;100.00
15487;BME280;7845;53.698;10.078;2022-11-20T13:30:23;100502.06;;;4.61;100.00
15487;BME280;7845;53.698;10.078;2022-11-20T13:32:51;100502.91;;;4.60;100.00
15487;BME280;7845;53.698;10.078;2022-11-20T13:35:32;100502.88;;;4.57;100.00
15487;BME280;7845;53.698;10.078;2022-11-20T13:38:12;100501.22;;;4.62;100.00
15487;BME280;7845;53.698;10.078;2022-11-20T13:40:56;100496.97;;;4.67;100.00
15487;BME280;7845;53.698;10.078;2022-11-20T13:43:40;100501.22;;;4.64;100.00
15487;BME280;7845;53.698;10.078;2022-11-20T13:46:08;100496.03;;;4.61;100.00
15487;BME280;7845;53.698;10.078;2022-11-20T13:48:45;100502.03;;;4.57;100.00
15487;BME280;7845;53.698;10.078;2022-11-20T13:51:42;100502.78;;;4.51;100.00